sensor_id;sensor_type;location;lat;lon;timestamp;P1;durP1;ratioP1;P2;durP2;ratioP2
10489;SDS011;35569;48.402;10.670;2022-10-31T00:00:17;4.90;;;4.63;;
10489;SDS011;35569;48.402;10.670;2022-10-31T00:00:49;5.57;;;5.23;;
10489;SDS011;35569;48.402;10.670;2022-10-31T00:01:28;4.77;;;4.47;;
10489;SDS011;35569;48.402;10.670;2022-10-31T00:02:00;5.27;;;4.97;;
10489;SDS011;35569;48.402;10.670;2022-10-31T00:02:33;5.97;;;5.37;;
10489;SDS011;35569;48.402;10.670;2022-10-31T00:03:08;7.33;;;5.47;;
10489;SDS011;35569;48.402;10.670;2022-10-31T00:03:40;5.40;;;5.10;;
10489;SDS011;35569;48.402;10.670;2022-10-31T00:04:12;5.97;;;5.57;;
10489;SDS011;35569;48.402;10.670;2022-10-31T00:04:47;6.13;;;5.73;;
10489;SDS011;35569;48.402;10.670;2022-10-31T00:05:19;6.03;;;5.53;;
10489;SDS011;35569;48.402;10.670;2022-10-31T00:05:52;8.80;;;7.57;;
10489;SDS011;35569;48.402;10.670;2022-10-31T00:06:25;9.60;;;8.20;;
10489;SDS011;35569;48.402;10.670;2022-10-31T00:07:00;7.13;;;6.43;;
10489;SDS011;35569;48.402;10.670;2022-10-31T00:07:32;6.40;;;5.80;;
10489;SDS011;35569;48.402;10.670;2022-10-31T00:08:04;6.53;;;6.03;;
10489;SDS011;35569;48.402;10.670;2022-10-31T00:08:36;5.80;;;5.30;;
10489;SDS011;35569;48.402;10.670;2022-10-31T00:09:11;5.27;;;4.77;;
10489;SDS011;35569;48.402;10.670;2022-10-31T00:09:44;4.40;;;4.23;;
10489;SDS011;35569;48.402;10.670;2022-10-31T00:10:16;4.40;;;4.20;;
10489;SDS011;35569;48.402;10.670;2022-10-31T00:10:51;3.80;;;3.50;;
10489;SDS011;35569;48.402;10.670;2022-10-31T00:11:23;4.40;;;4.20;;
10489;SDS011;35569;48.402;10.670;2022-10-31T00:11:55;4.37;;;4.27;;
10489;SDS011;35569;48.402;10.670;2022-10-31T00:12:30;4.80;;;4.40;;
10489;SDS011;35569;48.402;10.670;2022-10-31T00:13:02;8.67;;;4.07;;
10489;SDS011;35569;48.402;10.670;2022-10-31T00:13:35;4.07;;;3.87;;
10489;SDS011;35569;48.402;10.670;2022-10-31T00:14:10;4.40;;;4.20;;
10489;SDS011;35569;48.402;10.670;2022-10-31T00:14:42;3.60;;;3.50;;
10489;SDS011;35569;48.402;10.670;2022-10-31T00:15:14;3.33;;;3.23;;
10489;SDS011;35569;48.402;10.670;2022-10-31T00:15:49;3.63;;;3.53;;
10489;SDS011;35569;48.402;10.670;2022-10-31T00:16:22;3.80;;;3.70;;
10489;SDS011;35569;48.402;10.670;2022-10-31T00:16:57;3.97;;;3.67;;
10489;SDS011;35569;48.402;10.670;2022-10-31T00:17:34;3.77;;;3.57;;
10489;SDS011;35569;48.402;10.670;2022-10-31T00:18:07;3.57;;;3.40;;
10489;SDS011;35569;48.402;10.670;2022-10-31T00:18:40;3.33;;;3.23;;
10489;SDS011;35569;48.402;10.670;2022-10-31T00:19:16;3.43;;;3.30;;
10489;SDS011;35569;48.402;10.670;2022-10-31T00:19:48;3.40;;;3.30;;
10489;SDS011;35569;48.402;10.670;2022-10-31T00:20:21;3.00;;;2.90;;
10489;SDS011;35569;48.402;10.670;2022-10-31T00:20:59;3.20;;;3.10;;
10489;SDS011;35569;48.402;10.670;2022-10-31T00:21:31;2.70;;;2.60;;
10489;SDS011;35569;48.402;10.670;2022-10-31T00:22:04;3.10;;;3.00;;
10489;SDS011;35569;48.402;10.670;2022-10-31T00:22:39;3.00;;;2.80;;
10489;SDS011;35569;48.402;10.670;2022-10-31T00:23:11;2.30;;;2.30;;
10489;SDS011;35569;48.402;10.670;2022-10-31T00:23:43;2.60;;;2.50;;
10489;SDS011;35569;48.402;10.670;2022-10-31T00:24:18;2.90;;;2.80;;
10489;SDS011;35569;48.402;10.670;2022-10-31T00:24:50;3.23;;;3.07;;
10489;SDS011;35569;48.402;10.670;2022-10-31T00:25:22;3.07;;;2.87;;
10489;SDS011;35569;48.402;10.670;2022-10-31T00:25:59;2.97;;;2.87;;
10489;SDS011;35569;48.402;10.670;2022-10-31T00:26:35;2.90;;;2.80;;
10489;SDS011;35569;48.402;10.670;2022-10-31T00:27:09;3.33;;;3.23;;
10489;SDS011;35569;48.402;10.670;2022-10-31T00:27:42;3.13;;;3.03;;
10489;SDS011;35569;48.402;10.670;2022-10-31T00:28:15;3.40;;;3.30;;
10489;SDS011;35569;48.402;10.670;2022-10-31T00:29:10;2.77;;;2.70;;
10489;SDS011;35569;48.402;10.670;2022-10-31T00:29:42;2.53;;;2.47;;
10489;SDS011;35569;48.402;10.670;2022-10-31T00:30:17;2.80;;;2.70;;
10489;SDS011;35569;48.402;10.670;2022-10-31T00:30:49;3.30;;;3.10;;
10489;SDS011;35569;48.402;10.670;2022-10-31T00:31:21;2.83;;;2.73;;
10489;SDS011;35569;48.402;10.670;2022-10-31T00:31:58;3.00;;;2.90;;
10489;SDS011;35569;48.402;10.670;2022-10-31T00:32:31;3.17;;;3.07;;
10489;SDS011;35569;48.402;10.670;2022-10-31T00:33:07;3.07;;;2.97;;
10489;SDS011;35569;48.402;10.670;2022-10-31T00:33:41;2.83;;;2.77;;
10489;SDS011;35569;48.402;10.670;2022-10-31T00:34:13;2.97;;;2.87;;
10489;SDS011;35569;48.402;10.670;2022-10-31T00:34:48;2.63;;;2.53;;
10489;SDS011;35569;48.402;10.670;2022-10-31T00:35:21;2.50;;;2.40;;
10489;SDS011;35569;48.402;10.670;2022-10-31T00:35:53;2.40;;;2.30;;
10489;SDS011;35569;48.402;10.670;2022-10-31T00:36:26;2.93;;;2.83;;
10489;SDS011;35569;48.402;10.670;2022-10-31T00:37:01;2.67;;;2.57;;
10489;SDS011;35569;48.402;10.670;2022-10-31T00:37:33;2.30;;;2.30;;
10489;SDS011;35569;48.402;10.670;2022-10-31T00:38:05;2.57;;;2.47;;
10489;SDS011;35569;48.402;10.670;2022-10-31T00:38:40;2.70;;;2.60;;
10489;SDS011;35569;48.402;10.670;2022-10-31T00:39:13;2.70;;;2.60;;
10489;SDS011;35569;48.402;10.670;2022-10-31T00:39:45;2.57;;;2.47;;
10489;SDS011;35569;48.402;10.670;2022-10-31T00:40:21;2.60;;;2.50;;
10489;SDS011;35569;48.402;10.670;2022-10-31T00:40:53;2.40;;;2.30;;
10489;SDS011;35569;48.402;10.670;2022-10-31T00:41:25;3.37;;;3.17;;
10489;SDS011;35569;48.402;10.670;2022-10-31T00:42:00;2.90;;;2.80;;
10489;SDS011;35569;48.402;10.670;2022-10-31T00:42:32;2.67;;;2.57;;
10489;SDS011;35569;48.402;10.670;2022-10-31T00:43:04;2.27;;;2.23;;
10489;SDS011;35569;48.402;10.670;2022-10-31T00:43:37;2.90;;;2.80;;
10489;SDS011;35569;48.402;10.670;2022-10-31T00:44:12;2.30;;;2.30;;
10489;SDS011;35569;48.402;10.670;2022-10-31T00:44:45;2.37;;;2.27;;
10489;SDS011;35569;48.402;10.670;2022-10-31T00:45:17;2.60;;;2.50;;
10489;SDS011;35569;48.402;10.670;2022-10-31T00:45:52;2.57;;;2.47;;
10489;SDS011;35569;48.402;10.670;2022-10-31T00:46:24;2.33;;;2.33;;
10489;SDS011;35569;48.402;10.670;2022-10-31T00:46:59;2.40;;;2.40;;
10489;SDS011;35569;48.402;10.670;2022-10-31T00:47:34;2.40;;;2.30;;
10489;SDS011;35569;48.402;10.670;2022-10-31T00:48:06;2.87;;;2.77;;
10489;SDS011;35569;48.402;10.670;2022-10-31T00:48:38;2.40;;;2.30;;
10489;SDS011;35569;48.402;10.670;2022-10-31T00:49:13;2.80;;;2.70;;
10489;SDS011;35569;48.402;10.670;2022-10-31T00:49:46;2.77;;;2.67;;
10489;SDS011;35569;48.402;10.670;2022-10-31T00:50:18;2.40;;;2.30;;
10489;SDS011;35569;48.402;10.670;2022-10-31T00:50:50;3.00;;;2.80;;
10489;SDS011;35569;48.402;10.670;2022-10-31T00:51:26;3.17;;;2.97;;
10489;SDS011;35569;48.402;10.670;2022-10-31T00:51:59;3.20;;;2.90;;
10489;SDS011;35569;48.402;10.670;2022-10-31T00:52:31;2.33;;;2.33;;
10489;SDS011;35569;48.402;10.670;2022-10-31T00:53:06;3.10;;;3.00;;
10489;SDS011;35569;48.402;10.670;2022-10-31T00:53:39;3.13;;;3.03;;
10489;SDS011;35569;48.402;10.670;2022-10-31T00:54:11;2.87;;;2.70;;
10489;SDS011;35569;48.402;10.670;2022-10-31T00:54:46;2.50;;;2.40;;
10489;SDS011;35569;48.402;10.670;2022-10-31T00:55:18;2.67;;;2.57;;
10489;SDS011;35569;48.402;10.670;2022-10-31T00:55:51;2.70;;;2.60;;
10489;SDS011;35569;48.402;10.670;2022-10-31T00:56:23;3.27;;;3.00;;
10489;SDS011;35569;48.402;10.670;2022-10-31T00:56:58;2.60;;;2.50;;
10489;SDS011;35569;48.402;10.670;2022-10-31T00:57:30;2.37;;;2.27;;
10489;SDS011;35569;48.402;10.670;2022-10-31T00:58:03;2.83;;;2.63;;
10489;SDS011;35569;48.402;10.670;2022-10-31T00:58:38;2.70;;;2.60;;
10489;SDS011;35569;48.402;10.670;2022-10-31T00:59:11;2.63;;;2.53;;
10489;SDS011;35569;48.402;10.670;2022-10-31T00:59:43;2.67;;;2.57;;
10489;SDS011;35569;48.402;10.670;2022-10-31T01:00:18;2.50;;;2.40;;
10489;SDS011;35569;48.402;10.670;2022-10-31T01:00:51;2.10;;;2.00;;
10489;SDS011;35569;48.402;10.670;2022-10-31T01:01:27;2.90;;;2.80;;
10489;SDS011;35569;48.402;10.670;2022-10-31T01:02:05;2.37;;;2.27;;
10489;SDS011;35569;48.402;10.670;2022-10-31T01:02:37;3.10;;;3.00;;
10489;SDS011;35569;48.402;10.670;2022-10-31T01:03:10;2.70;;;2.60;;
10489;SDS011;35569;48.402;10.670;2022-10-31T01:03:45;2.33;;;2.23;;
10489;SDS011;35569;48.402;10.670;2022-10-31T01:04:20;2.37;;;2.27;;
10489;SDS011;35569;48.402;10.670;2022-10-31T01:04:53;2.50;;;2.40;;
10489;SDS011;35569;48.402;10.670;2022-10-31T01:05:25;2.40;;;2.33;;
10489;SDS011;35569;48.402;10.670;2022-10-31T01:06:01;2.10;;;2.00;;
10489;SDS011;35569;48.402;10.670;2022-10-31T01:06:36;2.20;;;2.10;;
10489;SDS011;35569;48.402;10.670;2022-10-31T01:07:08;2.60;;;2.50;;
10489;SDS011;35569;48.402;10.670;2022-10-31T01:07:43;2.40;;;2.40;;
10489;SDS011;35569;48.402;10.670;2022-10-31T01:08:15;2.60;;;2.50;;
10489;SDS011;35569;48.402;10.670;2022-10-31T01:08:48;2.87;;;2.77;;
10489;SDS011;35569;48.402;10.670;2022-10-31T01:09:23;2.70;;;2.60;;
10489;SDS011;35569;48.402;10.670;2022-10-31T01:09:55;2.53;;;2.43;;
10489;SDS011;35569;48.402;10.670;2022-10-31T01:10:27;2.43;;;2.33;;
10489;SDS011;35569;48.402;10.670;2022-10-31T01:11:04;2.57;;;2.47;;
10489;SDS011;35569;48.402;10.670;2022-10-31T01:11:37;2.37;;;2.30;;
10489;SDS011;35569;48.402;10.670;2022-10-31T01:12:12;2.13;;;2.03;;
10489;SDS011;35569;48.402;10.670;2022-10-31T01:12:47;2.70;;;2.60;;
10489;SDS011;35569;48.402;10.670;2022-10-31T01:13:20;2.40;;;2.30;;
10489;SDS011;35569;48.402;10.670;2022-10-31T01:14:12;2.73;;;2.63;;
10489;SDS011;35569;48.402;10.670;2022-10-31T01:14:46;2.43;;;2.33;;
10489;SDS011;35569;48.402;10.670;2022-10-31T01:15:22;2.63;;;2.53;;
10489;SDS011;35569;48.402;10.670;2022-10-31T01:15:54;2.43;;;2.40;;
10489;SDS011;35569;48.402;10.670;2022-10-31T01:16:27;2.20;;;2.20;;
10489;SDS011;35569;48.402;10.670;2022-10-31T01:17:05;2.17;;;2.17;;
10489;SDS011;35569;48.402;10.670;2022-10-31T01:17:37;2.07;;;1.97;;
10489;SDS011;35569;48.402;10.670;2022-10-31T01:18:10;2.27;;;2.17;;
10489;SDS011;35569;48.402;10.670;2022-10-31T01:18:42;2.77;;;2.63;;
10489;SDS011;35569;48.402;10.670;2022-10-31T01:19:17;2.20;;;2.10;;
10489;SDS011;35569;48.402;10.670;2022-10-31T01:19:51;2.53;;;2.43;;
10489;SDS011;35569;48.402;10.670;2022-10-31T01:20:23;2.33;;;2.27;;
10489;SDS011;35569;48.402;10.670;2022-10-31T01:20:58;2.00;;;2.00;;
10489;SDS011;35569;48.402;10.670;2022-10-31T01:21:34;2.67;;;2.57;;
10489;SDS011;35569;48.402;10.670;2022-10-31T01:22:06;2.60;;;2.50;;
10489;SDS011;35569;48.402;10.670;2022-10-31T01:22:38;2.47;;;2.37;;
10489;SDS011;35569;48.402;10.670;2022-10-31T01:23:13;2.70;;;2.60;;
10489;SDS011;35569;48.402;10.670;2022-10-31T01:23:45;2.60;;;2.53;;
10489;SDS011;35569;48.402;10.670;2022-10-31T01:24:17;2.57;;;2.47;;
10489;SDS011;35569;48.402;10.670;2022-10-31T01:24:52;2.07;;;2.07;;
10489;SDS011;35569;48.402;10.670;2022-10-31T01:25:24;2.37;;;2.27;;
10489;SDS011;35569;48.402;10.670;2022-10-31T01:26:05;2.70;;;2.60;;
10489;SDS011;35569;48.402;10.670;2022-10-31T01:26:39;3.33;;;3.23;;
10489;SDS011;35569;48.402;10.670;2022-10-31T01:27:13;2.80;;;2.70;;
10489;SDS011;35569;48.402;10.670;2022-10-31T01:27:46;2.20;;;2.20;;
10489;SDS011;35569;48.402;10.670;2022-10-31T01:28:18;2.70;;;2.60;;
10489;SDS011;35569;48.402;10.670;2022-10-31T01:28:51;2.60;;;2.50;;
10489;SDS011;35569;48.402;10.670;2022-10-31T01:29:27;3.27;;;2.30;;
10489;SDS011;35569;48.402;10.670;2022-10-31T01:29:59;2.27;;;2.20;;
10489;SDS011;35569;48.402;10.670;2022-10-31T01:30:31;2.80;;;2.70;;
10489;SDS011;35569;48.402;10.670;2022-10-31T01:31:07;2.20;;;2.10;;
10489;SDS011;35569;48.402;10.670;2022-10-31T01:31:40;2.80;;;2.70;;
10489;SDS011;35569;48.402;10.670;2022-10-31T01:32:15;2.33;;;2.33;;
10489;SDS011;35569;48.402;10.670;2022-10-31T01:32:50;2.03;;;2.03;;
10489;SDS011;35569;48.402;10.670;2022-10-31T01:33:22;2.80;;;2.70;;
10489;SDS011;35569;48.402;10.670;2022-10-31T01:33:54;3.10;;;2.90;;
10489;SDS011;35569;48.402;10.670;2022-10-31T01:34:30;2.70;;;2.60;;
10489;SDS011;35569;48.402;10.670;2022-10-31T01:35:02;2.47;;;2.47;;
10489;SDS011;35569;48.402;10.670;2022-10-31T01:35:34;2.60;;;2.50;;
10489;SDS011;35569;48.402;10.670;2022-10-31T01:36:14;2.17;;;2.10;;
10489;SDS011;35569;48.402;10.670;2022-10-31T01:36:53;2.40;;;2.37;;
10489;SDS011;35569;48.402;10.670;2022-10-31T01:37:26;2.83;;;2.73;;
10489;SDS011;35569;48.402;10.670;2022-10-31T01:37:58;2.20;;;2.10;;
10489;SDS011;35569;48.402;10.670;2022-10-31T01:38:34;3.07;;;2.97;;
10489;SDS011;35569;48.402;10.670;2022-10-31T01:39:07;2.43;;;2.33;;
10489;SDS011;35569;48.402;10.670;2022-10-31T01:39:41;3.27;;;2.97;;
10489;SDS011;35569;48.402;10.670;2022-10-31T01:40:16;3.10;;;3.00;;
10489;SDS011;35569;48.402;10.670;2022-10-31T01:40:48;2.60;;;2.50;;
10489;SDS011;35569;48.402;10.670;2022-10-31T01:41:21;2.70;;;2.60;;
10489;SDS011;35569;48.402;10.670;2022-10-31T01:41:57;2.67;;;2.47;;
10489;SDS011;35569;48.402;10.670;2022-10-31T01:42:29;2.20;;;2.10;;
10489;SDS011;35569;48.402;10.670;2022-10-31T01:43:01;2.70;;;2.60;;
10489;SDS011;35569;48.402;10.670;2022-10-31T01:43:44;3.20;;;3.10;;
10489;SDS011;35569;48.402;10.670;2022-10-31T01:45:23;2.97;;;2.70;;
10489;SDS011;35569;48.402;10.670;2022-10-31T01:45:58;2.63;;;2.53;;
10489;SDS011;35569;48.402;10.670;2022-10-31T01:46:31;2.90;;;2.80;;
10489;SDS011;35569;48.402;10.670;2022-10-31T01:47:07;2.70;;;2.60;;
10489;SDS011;35569;48.402;10.670;2022-10-31T01:47:47;3.33;;;3.13;;
10489;SDS011;35569;48.402;10.670;2022-10-31T01:48:29;8.00;;;3.07;;
10489;SDS011;35569;48.402;10.670;2022-10-31T01:49:04;3.77;;;3.60;;
10489;SDS011;35569;48.402;10.670;2022-10-31T01:49:43;3.53;;;3.33;;
10489;SDS011;35569;48.402;10.670;2022-10-31T01:50:22;3.10;;;2.90;;
10489;SDS011;35569;48.402;10.670;2022-10-31T01:50:59;3.50;;;3.30;;
10489;SDS011;35569;48.402;10.670;2022-10-31T01:51:36;3.43;;;3.33;;
10489;SDS011;35569;48.402;10.670;2022-10-31T01:52:14;3.40;;;3.30;;
10489;SDS011;35569;48.402;10.670;2022-10-31T01:52:50;2.77;;;2.67;;
10489;SDS011;35569;48.402;10.670;2022-10-31T01:53:25;3.10;;;3.00;;
10489;SDS011;35569;48.402;10.670;2022-10-31T01:53:58;3.40;;;3.30;;
10489;SDS011;35569;48.402;10.670;2022-10-31T01:54:33;3.60;;;3.40;;
10489;SDS011;35569;48.402;10.670;2022-10-31T01:55:12;3.30;;;3.00;;
10489;SDS011;35569;48.402;10.670;2022-10-31T01:55:49;3.80;;;3.70;;
10489;SDS011;35569;48.402;10.670;2022-10-31T01:56:21;3.37;;;3.23;;
10489;SDS011;35569;48.402;10.670;2022-10-31T01:56:54;3.10;;;2.90;;
10489;SDS011;35569;48.402;10.670;2022-10-31T01:57:31;3.43;;;3.23;;
10489;SDS011;35569;48.402;10.670;2022-10-31T01:58:05;3.40;;;3.20;;
10489;SDS011;35569;48.402;10.670;2022-10-31T01:58:39;3.10;;;2.90;;
10489;SDS011;35569;48.402;10.670;2022-10-31T01:59:15;4.60;;;3.33;;
10489;SDS011;35569;48.402;10.670;2022-10-31T01:59:49;3.20;;;3.03;;
10489;SDS011;35569;48.402;10.670;2022-10-31T02:00:24;3.00;;;2.83;;
10489;SDS011;35569;48.402;10.670;2022-10-31T02:00:59;3.40;;;3.20;;
10489;SDS011;35569;48.402;10.670;2022-10-31T02:01:38;3.30;;;3.20;;
10489;SDS011;35569;48.402;10.670;2022-10-31T02:02:10;3.00;;;2.90;;
10489;SDS011;35569;48.402;10.670;2022-10-31T02:02:48;3.20;;;3.10;;
10489;SDS011;35569;48.402;10.670;2022-10-31T02:03:21;3.43;;;2.73;;
10489;SDS011;35569;48.402;10.670;2022-10-31T02:03:54;2.97;;;2.87;;
10489;SDS011;35569;48.402;10.670;2022-10-31T02:04:29;3.40;;;3.10;;
10489;SDS011;35569;48.402;10.670;2022-10-31T02:05:04;3.17;;;3.07;;
10489;SDS011;35569;48.402;10.670;2022-10-31T02:05:38;3.30;;;3.10;;
10489;SDS011;35569;48.402;10.670;2022-10-31T02:06:16;2.90;;;2.80;;
10489;SDS011;35569;48.402;10.670;2022-10-31T02:06:54;2.53;;;2.43;;
10489;SDS011;35569;48.402;10.670;2022-10-31T02:07:30;2.37;;;2.27;;
10489;SDS011;35569;48.402;10.670;2022-10-31T02:08:09;2.10;;;2.10;;
10489;SDS011;35569;48.402;10.670;2022-10-31T02:08:44;2.50;;;2.40;;
10489;SDS011;35569;48.402;10.670;2022-10-31T02:09:19;2.43;;;2.20;;
10489;SDS011;35569;48.402;10.670;2022-10-31T02:09:54;1.93;;;1.93;;
10489;SDS011;35569;48.402;10.670;2022-10-31T02:10:29;2.90;;;2.80;;
10489;SDS011;35569;48.402;10.670;2022-10-31T02:11:05;2.10;;;2.10;;
10489;SDS011;35569;48.402;10.670;2022-10-31T02:11:37;3.27;;;2.70;;
10489;SDS011;35569;48.402;10.670;2022-10-31T02:12:10;3.33;;;2.67;;
10489;SDS011;35569;48.402;10.670;2022-10-31T02:12:42;2.80;;;2.70;;
10489;SDS011;35569;48.402;10.670;2022-10-31T02:13:19;2.80;;;2.70;;
10489;SDS011;35569;48.402;10.670;2022-10-31T02:13:53;2.30;;;2.20;;
10489;SDS011;35569;48.402;10.670;2022-10-31T02:14:27;3.23;;;3.13;;
10489;SDS011;35569;48.402;10.670;2022-10-31T02:15:04;2.57;;;2.47;;
10489;SDS011;35569;48.402;10.670;2022-10-31T02:15:37;3.17;;;3.07;;
10489;SDS011;35569;48.402;10.670;2022-10-31T02:16:10;5.73;;;3.13;;
10489;SDS011;35569;48.402;10.670;2022-10-31T02:16:45;2.90;;;2.80;;
10489;SDS011;35569;48.402;10.670;2022-10-31T02:17:17;3.00;;;2.80;;
10489;SDS011;35569;48.402;10.670;2022-10-31T02:17:52;2.73;;;2.63;;
10489;SDS011;35569;48.402;10.670;2022-10-31T02:18:28;2.70;;;2.60;;
10489;SDS011;35569;48.402;10.670;2022-10-31T02:19:01;2.77;;;2.67;;
10489;SDS011;35569;48.402;10.670;2022-10-31T02:19:38;2.67;;;2.57;;
10489;SDS011;35569;48.402;10.670;2022-10-31T02:20:18;2.67;;;2.57;;
10489;SDS011;35569;48.402;10.670;2022-10-31T02:20:56;2.60;;;2.50;;
10489;SDS011;35569;48.402;10.670;2022-10-31T02:21:36;2.30;;;2.30;;
10489;SDS011;35569;48.402;10.670;2022-10-31T02:22:13;2.50;;;2.40;;
10489;SDS011;35569;48.402;10.670;2022-10-31T02:23:19;2.00;;;2.00;;
10489;SDS011;35569;48.402;10.670;2022-10-31T02:24:30;2.20;;;2.20;;
10489;SDS011;35569;48.402;10.670;2022-10-31T02:25:17;2.60;;;2.50;;
10489;SDS011;35569;48.402;10.670;2022-10-31T02:27:06;3.00;;;2.90;;
10489;SDS011;35569;48.402;10.670;2022-10-31T02:29:10;3.77;;;3.57;;
10489;SDS011;35569;48.402;10.670;2022-10-31T02:30:05;2.73;;;2.63;;
10489;SDS011;35569;48.402;10.670;2022-10-31T02:30:40;3.00;;;2.90;;
10489;SDS011;35569;48.402;10.670;2022-10-31T02:31:30;3.50;;;3.30;;
10489;SDS011;35569;48.402;10.670;2022-10-31T02:32:07;2.93;;;2.83;;
10489;SDS011;35569;48.402;10.670;2022-10-31T02:32:46;2.63;;;2.53;;
10489;SDS011;35569;48.402;10.670;2022-10-31T02:33:27;2.90;;;2.70;;
10489;SDS011;35569;48.402;10.670;2022-10-31T02:34:04;3.00;;;2.90;;
10489;SDS011;35569;48.402;10.670;2022-10-31T02:34:41;2.80;;;2.70;;
10489;SDS011;35569;48.402;10.670;2022-10-31T02:35:23;2.43;;;2.33;;
10489;SDS011;35569;48.402;10.670;2022-10-31T02:36:01;2.77;;;2.67;;
10489;SDS011;35569;48.402;10.670;2022-10-31T02:36:40;2.80;;;2.70;;
10489;SDS011;35569;48.402;10.670;2022-10-31T02:37:16;2.47;;;2.37;;
10489;SDS011;35569;48.402;10.670;2022-10-31T02:37:55;2.73;;;2.63;;
10489;SDS011;35569;48.402;10.670;2022-10-31T02:38:38;2.00;;;2.00;;
10489;SDS011;35569;48.402;10.670;2022-10-31T02:39:22;2.03;;;2.03;;
10489;SDS011;35569;48.402;10.670;2022-10-31T02:39:59;2.30;;;2.20;;
10489;SDS011;35569;48.402;10.670;2022-10-31T02:41:01;2.47;;;2.37;;
10489;SDS011;35569;48.402;10.670;2022-10-31T02:41:57;2.50;;;2.40;;
10489;SDS011;35569;48.402;10.670;2022-10-31T02:42:38;1.80;;;1.80;;
10489;SDS011;35569;48.402;10.670;2022-10-31T02:43:17;2.63;;;2.53;;
10489;SDS011;35569;48.402;10.670;2022-10-31T02:43:54;2.33;;;2.23;;
10489;SDS011;35569;48.402;10.670;2022-10-31T02:44:36;2.13;;;2.13;;
10489;SDS011;35569;48.402;10.670;2022-10-31T02:45:11;2.20;;;2.10;;
10489;SDS011;35569;48.402;10.670;2022-10-31T02:45:47;2.00;;;2.00;;
10489;SDS011;35569;48.402;10.670;2022-10-31T02:46:31;2.00;;;2.00;;
10489;SDS011;35569;48.402;10.670;2022-10-31T02:47:11;1.90;;;1.80;;
10489;SDS011;35569;48.402;10.670;2022-10-31T02:47:47;1.90;;;1.80;;
10489;SDS011;35569;48.402;10.670;2022-10-31T02:48:22;1.70;;;1.70;;
10489;SDS011;35569;48.402;10.670;2022-10-31T02:48:57;2.40;;;2.30;;
10489;SDS011;35569;48.402;10.670;2022-10-31T02:49:38;1.90;;;1.80;;
10489;SDS011;35569;48.402;10.670;2022-10-31T02:50:15;1.90;;;1.90;;
10489;SDS011;35569;48.402;10.670;2022-10-31T02:50:52;1.70;;;1.70;;
10489;SDS011;35569;48.402;10.670;2022-10-31T02:51:29;1.53;;;1.53;;
10489;SDS011;35569;48.402;10.670;2022-10-31T02:52:01;2.10;;;2.00;;
10489;SDS011;35569;48.402;10.670;2022-10-31T02:52:34;2.00;;;1.90;;
10489;SDS011;35569;48.402;10.670;2022-10-31T02:53:08;1.57;;;1.57;;
10489;SDS011;35569;48.402;10.670;2022-10-31T02:53:42;1.40;;;1.40;;
10489;SDS011;35569;48.402;10.670;2022-10-31T02:54:18;1.80;;;1.70;;
10489;SDS011;35569;48.402;10.670;2022-10-31T02:54:55;1.70;;;1.70;;
10489;SDS011;35569;48.402;10.670;2022-10-31T02:56:28;1.80;;;1.70;;
10489;SDS011;35569;48.402;10.670;2022-10-31T02:57:02;1.57;;;1.57;;
10489;SDS011;35569;48.402;10.670;2022-10-31T02:57:38;1.60;;;1.60;;
10489;SDS011;35569;48.402;10.670;2022-10-31T02:58:12;1.83;;;1.73;;
10489;SDS011;35569;48.402;10.670;2022-10-31T02:58:49;2.00;;;2.00;;
10489;SDS011;35569;48.402;10.670;2022-10-31T02:59:26;1.80;;;1.80;;
10489;SDS011;35569;48.402;10.670;2022-10-31T03:00:03;1.80;;;1.80;;
10489;SDS011;35569;48.402;10.670;2022-10-31T03:00:37;2.17;;;2.10;;
10489;SDS011;35569;48.402;10.670;2022-10-31T03:01:22;1.90;;;1.90;;
10489;SDS011;35569;48.402;10.670;2022-10-31T03:02:06;2.17;;;2.07;;
10489;SDS011;35569;48.402;10.670;2022-10-31T03:02:53;1.53;;;1.53;;
10489;SDS011;35569;48.402;10.670;2022-10-31T03:03:30;2.07;;;2.07;;
10489;SDS011;35569;48.402;10.670;2022-10-31T03:04:20;2.00;;;1.90;;
10489;SDS011;35569;48.402;10.670;2022-10-31T03:06:10;2.50;;;2.50;;
10489;SDS011;35569;48.402;10.670;2022-10-31T03:06:51;2.30;;;2.30;;
10489;SDS011;35569;48.402;10.670;2022-10-31T03:07:29;2.20;;;2.10;;
10489;SDS011;35569;48.402;10.670;2022-10-31T03:08:06;2.20;;;2.20;;
10489;SDS011;35569;48.402;10.670;2022-10-31T03:08:47;2.47;;;2.30;;
10489;SDS011;35569;48.402;10.670;2022-10-31T03:09:23;2.47;;;2.43;;
10489;SDS011;35569;48.402;10.670;2022-10-31T03:10:01;2.03;;;2.03;;
10489;SDS011;35569;48.402;10.670;2022-10-31T03:10:42;2.50;;;2.40;;
10489;SDS011;35569;48.402;10.670;2022-10-31T03:11:17;2.73;;;2.63;;
10489;SDS011;35569;48.402;10.670;2022-10-31T03:11:52;2.57;;;2.47;;
10489;SDS011;35569;48.402;10.670;2022-10-31T03:12:36;2.40;;;2.30;;
10489;SDS011;35569;48.402;10.670;2022-10-31T03:13:18;2.10;;;2.10;;
10489;SDS011;35569;48.402;10.670;2022-10-31T03:13:57;2.20;;;2.10;;
10489;SDS011;35569;48.402;10.670;2022-10-31T03:14:34;2.27;;;2.27;;
10489;SDS011;35569;48.402;10.670;2022-10-31T03:15:12;2.07;;;2.07;;
10489;SDS011;35569;48.402;10.670;2022-10-31T03:15:50;2.50;;;2.40;;
10489;SDS011;35569;48.402;10.670;2022-10-31T03:16:25;2.30;;;2.27;;
10489;SDS011;35569;48.402;10.670;2022-10-31T03:16:59;2.30;;;2.30;;
10489;SDS011;35569;48.402;10.670;2022-10-31T03:17:42;2.30;;;2.20;;
10489;SDS011;35569;48.402;10.670;2022-10-31T03:18:21;2.33;;;2.23;;
10489;SDS011;35569;48.402;10.670;2022-10-31T03:18:59;2.20;;;2.10;;
10489;SDS011;35569;48.402;10.670;2022-10-31T03:19:38;2.40;;;2.40;;
10489;SDS011;35569;48.402;10.670;2022-10-31T03:20:11;1.83;;;1.80;;
10489;SDS011;35569;48.402;10.670;2022-10-31T03:20:47;2.33;;;2.33;;
10489;SDS011;35569;48.402;10.670;2022-10-31T03:21:26;2.47;;;2.37;;
10489;SDS011;35569;48.402;10.670;2022-10-31T03:22:02;2.17;;;2.10;;
10489;SDS011;35569;48.402;10.670;2022-10-31T03:22:37;1.57;;;1.57;;
10489;SDS011;35569;48.402;10.670;2022-10-31T03:23:14;1.40;;;1.40;;
10489;SDS011;35569;48.402;10.670;2022-10-31T03:23:53;1.80;;;1.80;;
10489;SDS011;35569;48.402;10.670;2022-10-31T03:24:27;2.20;;;2.10;;
10489;SDS011;35569;48.402;10.670;2022-10-31T03:25:11;2.20;;;2.10;;
10489;SDS011;35569;48.402;10.670;2022-10-31T03:25:45;1.90;;;1.90;;
10489;SDS011;35569;48.402;10.670;2022-10-31T03:26:18;1.90;;;1.90;;
10489;SDS011;35569;48.402;10.670;2022-10-31T03:26:54;1.43;;;1.43;;
10489;SDS011;35569;48.402;10.670;2022-10-31T03:27:29;1.80;;;1.80;;
10489;SDS011;35569;48.402;10.670;2022-10-31T03:28:04;2.00;;;1.90;;
10489;SDS011;35569;48.402;10.670;2022-10-31T03:28:42;2.10;;;2.00;;
10489;SDS011;35569;48.402;10.670;2022-10-31T03:29:17;2.20;;;2.10;;
10489;SDS011;35569;48.402;10.670;2022-10-31T03:29:52;1.90;;;1.80;;
10489;SDS011;35569;48.402;10.670;2022-10-31T03:30:29;1.87;;;1.77;;
10489;SDS011;35569;48.402;10.670;2022-10-31T03:31:05;1.80;;;1.80;;
10489;SDS011;35569;48.402;10.670;2022-10-31T03:31:43;2.40;;;1.50;;
10489;SDS011;35569;48.402;10.670;2022-10-31T03:32:21;1.57;;;1.57;;
10489;SDS011;35569;48.402;10.670;2022-10-31T03:32:59;1.93;;;1.87;;
10489;SDS011;35569;48.402;10.670;2022-10-31T03:33:35;2.37;;;2.30;;
10489;SDS011;35569;48.402;10.670;2022-10-31T03:34:11;2.60;;;1.77;;
10489;SDS011;35569;48.402;10.670;2022-10-31T03:34:44;1.90;;;1.90;;
10489;SDS011;35569;48.402;10.670;2022-10-31T03:35:19;2.00;;;1.90;;
10489;SDS011;35569;48.402;10.670;2022-10-31T03:35:55;1.63;;;1.63;;
10489;SDS011;35569;48.402;10.670;2022-10-31T03:36:29;1.57;;;1.57;;
10489;SDS011;35569;48.402;10.670;2022-10-31T03:37:03;2.27;;;2.27;;
10489;SDS011;35569;48.402;10.670;2022-10-31T03:37:39;1.90;;;1.80;;